createdAt,value
2019-02-06T00:01:59.460Z,2.43
2019-02-06T00:04:27.619Z,2.47
2019-02-06T00:06:55.623Z,2.13
2019-02-06T00:09:23.598Z,2.10
2019-02-06T00:11:51.552Z,2.10
2019-02-06T00:14:19.437Z,2.27
2019-02-06T00:16:47.408Z,2.37
2019-02-06T00:19:15.316Z,1.90
2019-02-06T00:21:43.356Z,2.40
2019-02-06T00:24:11.412Z,2.20
2019-02-06T00:26:39.385Z,1.87
2019-02-06T00:29:07.276Z,1.90
2019-02-06T00:31:35.271Z,2.47
2019-02-06T00:34:03.275Z,2.40
2019-02-06T00:36:31.956Z,2.03
2019-02-06T00:39:00.076Z,2.10
2019-02-06T00:41:27.928Z,2.20
2019-02-06T00:43:55.908Z,2.20
2019-02-06T00:46:23.981Z,2.17
2019-02-06T00:48:51.996Z,1.93
2019-02-06T00:51:19.864Z,1.80
2019-02-06T00:53:48.156Z,1.80
2019-02-06T00:56:16.043Z,1.80
2019-02-06T00:58:45.557Z,1.80
2019-02-06T01:01:16.420Z,2.10
2019-02-06T01:03:44.281Z,2.00
2019-02-06T01:06:12.467Z,1.97
2019-02-06T01:08:40.576Z,2.00
2019-02-06T01:11:08.532Z,2.07
2019-02-06T01:13:36.392Z,2.07
2019-02-06T01:16:04.463Z,2.30
2019-02-06T01:18:33.628Z,2.00
2019-02-06T01:21:01.725Z,1.97
2019-02-06T01:23:29.884Z,2.00
2019-02-06T01:25:59.498Z,1.63
2019-02-06T01:28:27.569Z,1.67
2019-02-06T01:30:59.429Z,2.00
2019-02-06T01:33:27.294Z,2.60
2019-02-06T01:35:57.801Z,1.93
2019-02-06T01:38:25.855Z,2.23
2019-02-06T01:40:55.522Z,2.20
2019-02-06T01:43:23.801Z,2.30
2019-02-06T01:45:51.756Z,2.03
2019-02-06T01:48:19.816Z,1.93
2019-02-06T01:50:47.664Z,2.00
2019-02-06T01:53:15.739Z,1.90
2019-02-06T01:55:43.724Z,1.67
2019-02-06T01:58:11.699Z,2.03
2019-02-06T02:00:39.863Z,1.90
2019-02-06T02:03:10.277Z,1.90
2019-02-06T02:05:38.268Z,1.70
2019-02-06T02:08:06.283Z,1.80
2019-02-06T02:10:34.156Z,1.60
2019-02-06T02:13:21.556Z,2.10
2019-02-06T02:15:49.527Z,2.20
2019-02-06T02:18:17.611Z,1.90
2019-02-06T02:20:45.664Z,1.77
2019-02-06T02:23:13.738Z,1.80
2019-02-06T02:25:41.828Z,2.10
2019-02-06T02:28:10.939Z,2.07
2019-02-06T02:30:42.376Z,1.40
2019-02-06T02:33:10.457Z,1.67
2019-02-06T02:35:38.423Z,2.10
2019-02-06T02:38:06.494Z,1.90
2019-02-06T02:40:34.577Z,1.47
2019-02-06T02:43:02.665Z,1.90
2019-02-06T02:45:31.017Z,1.90
2019-02-06T02:47:59.083Z,2.20
2019-02-06T02:50:30.199Z,1.83
2019-02-06T02:52:58.270Z,1.77
2019-02-06T02:55:26.340Z,2.07
2019-02-06T02:57:54.568Z,1.63
2019-02-06T03:00:29.936Z,1.77
2019-02-06T03:03:06.352Z,1.77
2019-02-06T03:05:35.566Z,2.07
2019-02-06T03:08:03.825Z,1.70
2019-02-06T03:10:32.004Z,2.00
2019-02-06T03:13:00.370Z,1.93
2019-02-06T03:15:28.456Z,2.07
2019-02-06T03:17:56.526Z,2.13
2019-02-06T03:20:24.620Z,2.00
2019-02-06T03:22:52.600Z,1.83
2019-02-06T03:25:20.441Z,2.30
2019-02-06T03:27:48.487Z,2.33
2019-02-06T03:30:17.090Z,1.90
2019-02-06T03:32:45.036Z,2.40
2019-02-06T03:35:13.039Z,2.03
2019-02-06T03:37:41.199Z,2.03
2019-02-06T03:40:09.568Z,2.17
2019-02-06T03:42:37.581Z,2.53
2019-02-06T03:45:06.355Z,2.10
2019-02-06T03:47:34.975Z,2.57
2019-02-06T03:50:04.056Z,2.43
2019-02-06T03:52:32.039Z,2.90
2019-02-06T03:55:00.322Z,2.40
2019-02-06T03:57:28.441Z,2.37
2019-02-06T03:59:56.495Z,2.50
2019-02-06T04:02:26.383Z,2.50
2019-02-06T04:04:54.823Z,2.37
2019-02-06T04:07:22.889Z,2.40
2019-02-06T04:09:50.975Z,2.90
2019-02-06T04:12:19.133Z,2.40
2019-02-06T04:14:46.992Z,2.77
2019-02-06T04:17:15.155Z,2.37
2019-02-06T04:19:43.189Z,2.37
2019-02-06T04:22:11.247Z,2.40
2019-02-06T04:24:39.433Z,2.30
2019-02-06T04:27:07.403Z,2.53
2019-02-06T04:29:35.493Z,2.67
2019-02-06T04:32:03.627Z,2.57
2019-02-06T04:34:31.720Z,2.93
2019-02-06T04:37:06.728Z,2.33
2019-02-06T04:39:29.661Z,2.40
2019-02-06T04:41:57.722Z,1.93
2019-02-06T04:44:25.726Z,2.63
2019-02-06T04:46:53.926Z,2.40
2019-02-06T04:49:41.345Z,2.40
2019-02-06T04:52:09.315Z,2.40
2019-02-06T04:54:37.384Z,1.53
2019-02-06T04:57:05.448Z,2.50
2019-02-06T04:59:33.502Z,2.90
2019-02-06T05:02:01.426Z,2.80
2019-02-06T05:04:29.595Z,2.53
2019-02-06T05:06:58.067Z,3.43
2019-02-06T05:09:26.175Z,3.30
2019-02-06T05:11:54.085Z,2.73
2019-02-06T05:14:21.950Z,2.97
2019-02-06T05:16:50.027Z,3.67
2019-02-06T05:19:18.096Z,3.33
2019-02-06T05:21:46.207Z,2.60
2019-02-06T05:24:14.870Z,2.80
2019-02-06T05:26:43.051Z,2.73
2019-02-06T05:29:11.047Z,2.90
2019-02-06T05:31:39.115Z,2.83
2019-02-06T05:34:06.877Z,2.67
2019-02-06T05:36:34.798Z,2.60
2019-02-06T05:39:05.292Z,2.73
2019-02-06T05:41:33.832Z,2.67
2019-02-06T05:44:01.839Z,2.37
2019-02-06T05:46:29.833Z,2.23
2019-02-06T05:48:59.390Z,2.50
2019-02-06T05:51:27.322Z,3.23
2019-02-06T05:53:55.424Z,3.30
2019-02-06T05:56:23.514Z,3.67
2019-02-06T05:58:51.927Z,3.03
2019-02-06T06:01:23.248Z,2.80
2019-02-06T06:03:51.467Z,2.90
2019-02-06T06:06:19.484Z,2.50
2019-02-06T06:08:47.525Z,3.20
2019-02-06T06:11:15.752Z,2.90
2019-02-06T06:13:43.848Z,2.60
2019-02-06T06:16:12.341Z,2.30
2019-02-06T06:18:40.236Z,2.50
2019-02-06T06:21:08.189Z,2.43
2019-02-06T06:23:36.277Z,2.57
2019-02-06T06:26:04.150Z,2.50
2019-02-06T06:28:32.156Z,2.30
2019-02-06T06:31:00.200Z,2.43
2019-02-06T06:33:28.351Z,2.33
2019-02-06T06:35:56.306Z,2.13
2019-02-06T06:38:24.441Z,2.30
2019-02-06T06:40:52.809Z,2.57
2019-02-06T06:43:20.914Z,2.30
2019-02-06T06:45:48.909Z,2.23
2019-02-06T06:48:16.988Z,2.23
2019-02-06T06:50:45.477Z,2.30
2019-02-06T06:53:13.624Z,2.00
2019-02-06T06:55:41.643Z,2.83
2019-02-06T06:58:09.655Z,2.40
2019-02-06T07:00:37.711Z,2.20
2019-02-06T07:03:05.612Z,2.43
2019-02-06T07:05:33.628Z,2.30
2019-02-06T07:08:09.557Z,2.13
2019-02-06T07:10:32.202Z,2.50
2019-02-06T07:13:00.061Z,2.43
2019-02-06T07:15:47.420Z,2.60
2019-02-06T07:18:15.712Z,2.07
2019-02-06T07:20:43.981Z,2.63
2019-02-06T07:23:11.860Z,1.93
2019-02-06T07:25:39.742Z,2.33
2019-02-06T07:28:07.817Z,2.50
2019-02-06T07:30:36.030Z,2.10
2019-02-06T07:33:04.267Z,1.83
2019-02-06T07:35:51.860Z,2.33
2019-02-06T07:38:24.442Z,2.07
2019-02-06T07:40:49.613Z,1.70
2019-02-06T07:43:17.615Z,2.00
2019-02-06T07:45:45.724Z,2.27
2019-02-06T07:48:13.696Z,1.93
2019-02-06T07:50:42.054Z,2.20
2019-02-06T07:53:10.173Z,2.17
2019-02-06T07:55:38.247Z,2.13
2019-02-06T07:58:25.802Z,1.90
2019-02-06T08:00:53.770Z,2.60
2019-02-06T08:03:21.855Z,2.10
2019-02-06T08:05:49.893Z,1.83
2019-02-06T08:08:17.995Z,1.90
2019-02-06T08:10:48.237Z,2.10
2019-02-06T08:13:16.257Z,1.80
2019-02-06T08:15:44.293Z,2.03
2019-02-06T08:18:12.407Z,1.87
2019-02-06T08:20:40.445Z,1.93
2019-02-06T08:23:08.531Z,2.27
2019-02-06T08:25:36.616Z,1.87
2019-02-06T08:28:06.935Z,2.10
2019-02-06T08:30:36.346Z,2.60
2019-02-06T08:33:04.341Z,1.97
2019-02-06T08:35:32.841Z,2.07
2019-02-06T08:38:00.896Z,1.70
2019-02-06T08:40:29.002Z,1.93
2019-02-06T08:42:57.076Z,1.97
2019-02-06T08:45:25.180Z,1.77
2019-02-06T08:47:53.387Z,1.53
2019-02-06T08:50:21.693Z,1.90
2019-02-06T08:52:50.344Z,1.90
2019-02-06T08:55:19.250Z,2.03
2019-02-06T08:57:47.319Z,2.27
2019-02-06T09:00:17.808Z,1.77
2019-02-06T09:02:45.996Z,1.97
2019-02-06T09:05:14.157Z,2.17
2019-02-06T09:07:43.653Z,2.00
2019-02-06T09:10:13.408Z,2.00
2019-02-06T09:12:41.436Z,1.97
2019-02-06T09:15:09.973Z,2.40
2019-02-06T09:17:37.831Z,2.00
2019-02-06T09:20:07.178Z,2.20
2019-02-06T09:22:35.265Z,2.10
2019-02-06T09:25:04.102Z,2.20
2019-02-06T09:27:32.181Z,1.90
2019-02-06T09:30:00.241Z,2.37
2019-02-06T09:32:28.220Z,2.10
2019-02-06T09:34:56.491Z,1.90
2019-02-06T09:37:24.546Z,2.20
2019-02-06T09:39:52.500Z,1.50
2019-02-06T09:42:20.812Z,1.97
2019-02-06T09:44:49.004Z,1.60
2019-02-06T09:47:17.081Z,1.97
2019-02-06T09:49:45.179Z,1.93
2019-02-06T09:52:13.184Z,1.80
2019-02-06T09:54:41.300Z,1.70
2019-02-06T09:57:09.397Z,1.67
2019-02-06T09:59:37.778Z,1.70
2019-02-06T10:02:05.752Z,1.63
2019-02-06T10:04:33.875Z,1.63
2019-02-06T10:07:01.966Z,2.23
2019-02-06T10:09:30.065Z,2.00
2019-02-06T10:11:58.073Z,1.50
2019-02-06T10:14:25.983Z,1.63
2019-02-06T10:16:54.428Z,1.47
2019-02-06T10:19:24.115Z,1.67
2019-02-06T10:21:53.690Z,1.73
2019-02-06T10:24:21.728Z,1.77
2019-02-06T10:26:49.904Z,1.90
2019-02-06T10:29:17.966Z,1.73
2019-02-06T10:31:49.092Z,1.67
2019-02-06T10:34:17.195Z,1.87
2019-02-06T10:36:45.052Z,1.90
2019-02-06T10:39:13.008Z,2.20
2019-02-06T10:41:41.081Z,1.90
2019-02-06T10:44:09.356Z,2.20
2019-02-06T10:46:37.493Z,1.97
2019-02-06T10:49:06.183Z,2.20
2019-02-06T10:51:34.276Z,1.90
2019-02-06T10:54:02.326Z,2.30
2019-02-06T10:56:34.478Z,2.10
2019-02-06T10:59:02.435Z,2.20
2019-02-06T11:01:30.534Z,2.00
2019-02-06T11:03:58.487Z,2.30
2019-02-06T11:06:26.567Z,2.10
2019-02-06T11:08:54.418Z,2.00
2019-02-06T11:11:22.619Z,2.17
2019-02-06T11:13:53.624Z,1.80
2019-02-06T11:16:21.614Z,1.90
2019-02-06T11:18:49.480Z,2.23
2019-02-06T11:21:17.923Z,1.93
2019-02-06T11:23:46.011Z,2.10
2019-02-06T11:26:13.979Z,1.90
2019-02-06T11:28:42.156Z,1.90
2019-02-06T11:31:10.396Z,1.90
2019-02-06T11:33:38.566Z,1.80
2019-02-06T11:36:06.622Z,1.97
2019-02-06T11:38:35.224Z,2.00
2019-02-06T11:41:03.296Z,1.83
2019-02-06T11:43:32.162Z,1.77
2019-02-06T11:46:00.513Z,1.87
2019-02-06T11:48:28.486Z,1.63
2019-02-06T11:50:57.075Z,2.10
2019-02-06T11:53:26.720Z,1.77
2019-02-06T11:55:55.133Z,1.90
2019-02-06T11:58:23.381Z,1.80
2019-02-06T12:00:57.016Z,1.73
2019-02-06T12:03:25.189Z,2.17
2019-02-06T12:05:53.344Z,1.83
2019-02-06T12:08:21.400Z,2.00
2019-02-06T12:10:49.728Z,2.07
2019-02-06T12:13:17.801Z,2.17
2019-02-06T12:15:46.011Z,2.23
2019-02-06T12:18:13.962Z,1.80
2019-02-06T12:20:42.066Z,1.90
2019-02-06T12:23:10.115Z,1.87
2019-02-06T12:25:38.179Z,1.97
2019-02-06T12:28:06.575Z,2.00
2019-02-06T12:30:34.521Z,2.20
2019-02-06T12:33:03.529Z,1.90
2019-02-06T12:35:31.751Z,1.97
2019-02-06T12:37:59.791Z,1.83
2019-02-06T12:40:27.902Z,2.40
2019-02-06T12:42:55.887Z,2.10
2019-02-06T12:45:24.457Z,1.90
2019-02-06T12:47:53.000Z,2.00
2019-02-06T12:50:21.192Z,2.03
2019-02-06T12:52:49.461Z,2.00
2019-02-06T12:55:19.737Z,2.00
2019-02-06T12:57:47.972Z,1.90
2019-02-06T13:00:17.313Z,2.23
2019-02-06T13:02:45.296Z,2.10
2019-02-06T13:05:13.739Z,2.03
2019-02-06T13:07:41.688Z,1.67
2019-02-06T13:10:09.779Z,2.00
2019-02-06T13:12:38.019Z,2.13
2019-02-06T13:15:06.658Z,2.23
2019-02-06T13:17:34.571Z,2.20
2019-02-06T13:20:04.219Z,2.17
2019-02-06T13:22:32.405Z,2.30
2019-02-06T13:25:00.482Z,2.23
2019-02-06T13:27:28.437Z,2.17
2019-02-06T13:29:56.415Z,2.33
2019-02-06T13:32:24.305Z,2.50
2019-02-06T13:34:52.455Z,2.40
2019-02-06T13:37:20.632Z,2.13
2019-02-06T13:39:48.568Z,2.37
2019-02-06T13:42:16.458Z,2.53
2019-02-06T13:44:44.454Z,2.47
2019-02-06T13:47:12.571Z,2.30
2019-02-06T13:49:40.474Z,2.83
2019-02-06T13:52:08.649Z,2.43
2019-02-06T13:54:36.824Z,3.03
2019-02-06T13:57:04.792Z,2.83
2019-02-06T13:59:32.868Z,2.57
2019-02-06T14:02:00.922Z,2.70
2019-02-06T14:04:28.977Z,2.80
2019-02-06T14:06:56.838Z,2.93
2019-02-06T14:09:26.615Z,3.03
2019-02-06T14:11:54.617Z,3.07
2019-02-06T14:14:22.551Z,2.13
2019-02-06T14:16:50.616Z,2.90
2019-02-06T14:19:18.665Z,2.90
2019-02-06T14:21:46.625Z,2.53
2019-02-06T14:24:34.247Z,2.70
2019-02-06T14:27:27.780Z,2.37
2019-02-06T14:30:17.112Z,2.70
2019-02-06T14:33:13.844Z,2.80
2019-02-06T14:35:48.842Z,2.60
2019-02-06T14:38:35.659Z,2.70
2019-02-06T14:41:13.890Z,2.50
2019-02-06T14:44:00.127Z,2.67
2019-02-06T14:46:59.889Z,2.43
2019-02-06T14:49:41.535Z,3.00
2019-02-06T14:52:32.200Z,2.57
2019-02-06T14:55:19.540Z,3.20
2019-02-06T14:58:10.160Z,2.47
2019-02-06T15:01:01.378Z,2.10
2019-02-06T15:03:48.764Z,2.40
2019-02-06T15:06:35.081Z,2.47
2019-02-06T15:09:25.665Z,2.33
2019-02-06T15:12:08.084Z,2.80
2019-02-06T15:14:46.031Z,2.20
2019-02-06T15:17:36.912Z,2.40
2019-02-06T15:20:27.627Z,2.20
2019-02-06T15:23:32.499Z,2.30
2019-02-06T15:26:16.787Z,2.13
2019-02-06T15:29:07.427Z,2.23
2019-02-06T15:31:40.589Z,2.27
2019-02-06T15:34:17.465Z,2.03
2019-02-06T15:37:05.428Z,2.00
2019-02-06T15:39:55.929Z,2.13
2019-02-06T15:42:37.618Z,2.50
2019-02-06T15:45:21.910Z,2.57
2019-02-06T15:47:53.038Z,2.00
2019-02-06T15:50:40.479Z,2.23
2019-02-06T15:53:30.807Z,2.47
2019-02-06T15:56:20.388Z,2.23
2019-02-06T15:58:54.619Z,2.10
2019-02-06T16:01:47.316Z,2.17
2019-02-06T16:04:48.369Z,1.63
2019-02-06T16:07:51.339Z,1.93
2019-02-06T16:10:37.536Z,2.10
2019-02-06T16:13:20.227Z,2.40
2019-02-06T16:15:55.041Z,2.30
2019-02-06T16:18:29.260Z,2.17
2019-02-06T16:21:04.280Z,2.00
2019-02-06T16:23:55.127Z,2.00
2019-02-06T16:26:37.547Z,2.07
2019-02-06T16:29:20.404Z,2.10
2019-02-06T16:32:08.528Z,1.97
2019-02-06T16:35:01.998Z,2.27
2019-02-06T16:37:43.611Z,1.90
2019-02-06T16:40:40.535Z,2.10
2019-02-06T16:43:21.608Z,2.00
2019-02-06T16:46:12.150Z,1.70
2019-02-06T16:48:59.715Z,1.77
2019-02-06T16:51:33.455Z,2.13
2019-02-06T16:54:39.240Z,2.10
2019-02-06T16:57:16.592Z,2.03
2019-02-06T17:00:03.244Z,2.00
2019-02-06T17:02:49.524Z,2.07
2019-02-06T17:05:41.688Z,1.60
2019-02-06T17:08:29.243Z,2.20
2019-02-06T17:11:07.504Z,2.00
2019-02-06T17:13:44.040Z,1.90
2019-02-06T17:16:34.672Z,2.07
2019-02-06T17:19:21.857Z,2.23
2019-02-06T17:22:08.331Z,2.13
2019-02-06T17:24:49.472Z,2.00
2019-02-06T17:27:28.334Z,2.10
2019-02-06T17:30:06.508Z,2.00
2019-02-06T17:33:02.293Z,2.27
2019-02-06T17:35:43.248Z,2.00
2019-02-06T17:38:25.447Z,1.70
2019-02-06T17:41:11.743Z,2.00
2019-02-06T17:44:01.861Z,2.17
2019-02-06T17:46:49.229Z,2.00
2019-02-06T17:49:24.212Z,2.27
2019-02-06T17:52:06.191Z,2.07
2019-02-06T17:54:52.297Z,1.47
2019-02-06T17:57:20.470Z,2.10
2019-02-06T17:59:48.535Z,2.27
2019-02-06T18:02:16.933Z,2.50
2019-02-06T18:04:45.844Z,1.93
2019-02-06T18:07:13.901Z,2.07
2019-02-06T18:09:41.807Z,1.90
2019-02-06T18:12:09.668Z,2.10
2019-02-06T18:14:37.572Z,2.00
2019-02-06T18:17:05.682Z,1.90
2019-02-06T18:19:38.147Z,1.73
2019-02-06T18:22:06.771Z,2.00
2019-02-06T18:24:34.810Z,2.07
2019-02-06T18:27:04.089Z,2.30
2019-02-06T18:29:32.123Z,2.40
2019-02-06T18:32:00.380Z,2.00
2019-02-06T18:34:28.522Z,1.73
2019-02-06T18:36:56.863Z,1.60
2019-02-06T18:39:24.910Z,2.10
2019-02-06T18:41:52.956Z,2.20
2019-02-06T18:44:21.060Z,1.93
2019-02-06T18:46:52.677Z,1.63
2019-02-06T18:49:20.648Z,1.93
2019-02-06T18:51:48.844Z,2.37
2019-02-06T18:54:17.004Z,1.90
2019-02-06T18:56:45.676Z,2.00
2019-02-06T18:59:14.004Z,2.20
2019-02-06T19:01:42.110Z,1.83
2019-02-06T19:04:18.433Z,2.10
2019-02-06T19:06:46.510Z,2.00
2019-02-06T19:09:15.868Z,2.13
2019-02-06T19:11:44.140Z,1.63
2019-02-06T19:14:12.578Z,1.97
2019-02-06T19:16:41.028Z,2.07
2019-02-06T19:19:09.093Z,1.90
2019-02-06T19:21:37.419Z,1.80
2019-02-06T19:24:05.807Z,1.90
2019-02-06T19:26:33.905Z,1.70
2019-02-06T19:29:02.181Z,1.97
2019-02-06T19:31:30.243Z,1.90
2019-02-06T19:33:58.390Z,1.77
2019-02-06T19:36:26.420Z,1.70
2019-02-06T19:38:54.491Z,1.97
2019-02-06T19:41:22.573Z,1.80
2019-02-06T19:43:50.569Z,1.93
2019-02-06T19:46:18.854Z,1.87
2019-02-06T19:48:47.112Z,2.00
2019-02-06T19:51:15.166Z,1.90
2019-02-06T19:53:43.688Z,1.70
2019-02-06T19:56:11.625Z,2.03
2019-02-06T19:58:41.157Z,2.00
2019-02-06T20:01:09.220Z,1.90
2019-02-06T20:03:37.430Z,1.73
2019-02-06T20:06:05.823Z,1.60
2019-02-06T20:08:34.044Z,1.93
2019-02-06T20:11:02.177Z,1.97
2019-02-06T20:13:30.698Z,1.63
2019-02-06T20:15:59.078Z,1.73
2019-02-06T20:18:27.278Z,2.20
2019-02-06T20:20:55.375Z,1.97
2019-02-06T20:23:23.456Z,2.03
2019-02-06T20:25:51.580Z,1.97
2019-02-06T20:28:19.827Z,2.03
2019-02-06T20:30:48.291Z,2.17
2019-02-06T20:33:16.940Z,2.00
2019-02-06T20:35:45.026Z,2.07
2019-02-06T20:38:13.084Z,1.93
2019-02-06T20:40:41.159Z,2.00
2019-02-06T20:43:09.397Z,2.03
2019-02-06T20:45:37.600Z,1.90
2019-02-06T20:48:05.631Z,1.80
2019-02-06T20:50:33.995Z,1.73
2019-02-06T20:53:03.036Z,2.03
2019-02-06T20:55:31.390Z,2.10
2019-02-06T20:57:59.670Z,2.27
2019-02-06T21:00:33.453Z,2.03
2019-02-06T21:03:01.676Z,2.00
2019-02-06T21:05:29.804Z,2.17
2019-02-06T21:07:58.426Z,2.00
2019-02-06T21:10:27.731Z,2.10
2019-02-06T21:12:57.617Z,2.03
2019-02-06T21:15:25.749Z,2.17
2019-02-06T21:17:53.837Z,2.33
2019-02-06T21:20:21.901Z,1.97
2019-02-06T21:22:50.267Z,2.20
2019-02-06T21:25:19.126Z,2.23
2019-02-06T21:27:48.324Z,2.10
2019-02-06T21:30:18.576Z,2.10
2019-02-06T21:32:46.903Z,1.87
2019-02-06T21:35:15.231Z,1.90
2019-02-06T21:37:43.271Z,1.70
2019-02-06T21:40:20.373Z,2.10
2019-02-06T21:42:48.692Z,2.10
2019-02-06T21:45:16.655Z,2.13
2019-02-06T21:47:44.864Z,1.47
2019-02-06T21:50:17.126Z,1.73
2019-02-06T21:52:45.311Z,1.97
2019-02-06T21:55:14.903Z,1.63
2019-02-06T21:57:43.260Z,1.60
2019-02-06T22:00:14.808Z,2.10
2019-02-06T22:02:42.896Z,2.20
2019-02-06T22:05:11.307Z,1.50
2019-02-06T22:07:39.475Z,1.50
2019-02-06T22:10:08.637Z,1.43
2019-02-06T22:12:37.721Z,1.23
2019-02-06T22:15:09.289Z,1.50
2019-02-06T22:17:37.213Z,1.60
2019-02-06T22:20:05.904Z,1.23
2019-02-06T22:22:35.402Z,1.33
2019-02-06T22:25:04.748Z,1.30
2019-02-06T22:27:32.687Z,1.20
2019-02-06T22:30:00.914Z,1.20
2019-02-06T22:32:29.275Z,1.20
2019-02-06T22:34:57.295Z,1.00
2019-02-06T22:37:25.395Z,1.10
2019-02-06T22:39:53.411Z,1.33
2019-02-06T22:42:21.490Z,1.23
2019-02-06T22:44:49.713Z,1.10
2019-02-06T22:47:17.640Z,1.00
2019-02-06T22:49:45.693Z,1.20
2019-02-06T22:52:14.112Z,1.33
2019-02-06T22:54:42.127Z,1.27
2019-02-06T22:57:12.312Z,1.37
2019-02-06T22:59:40.507Z,1.30
2019-02-06T23:02:08.851Z,1.20
2019-02-06T23:04:39.182Z,1.50
2019-02-06T23:07:07.455Z,1.60
2019-02-06T23:09:35.539Z,1.47
2019-02-06T23:12:04.341Z,1.77
2019-02-06T23:14:32.606Z,1.80
2019-02-06T23:17:00.679Z,1.50
2019-02-06T23:19:28.717Z,2.07
2019-02-06T23:21:56.765Z,1.83
2019-02-06T23:24:25.198Z,2.03
2019-02-06T23:26:53.177Z,1.77
2019-02-06T23:29:21.615Z,1.90
2019-02-06T23:31:49.685Z,1.77
2019-02-06T23:34:17.689Z,2.27
2019-02-06T23:36:45.943Z,2.20
2019-02-06T23:39:15.801Z,3.03
2019-02-06T23:41:43.758Z,2.60
2019-02-06T23:44:12.237Z,2.60
2019-02-06T23:46:40.147Z,2.63
2019-02-06T23:49:08.300Z,2.93
2019-02-06T23:51:36.466Z,3.00
2019-02-06T23:54:04.712Z,3.60
2019-02-06T23:56:32.600Z,3.63
2019-02-06T23:59:00.624Z,3.30
